createdAt,value
2017-03-20T18:37:47.769Z,98301
2017-03-20T18:38:03.584Z,98297
2017-03-20T18:38:19.416Z,98297
2017-03-20T18:38:35.245Z,98301
2017-03-20T18:38:51.420Z,98287
2017-03-20T18:39:07.232Z,98298
2017-03-20T18:39:22.912Z,98295
2017-03-20T18:39:38.722Z,98298
2017-03-20T18:39:54.535Z,98295
2017-03-20T18:40:10.573Z,98292
2017-03-20T18:40:26.388Z,98294
2017-03-20T18:40:42.452Z,98297
2017-03-20T18:40:58.491Z,98294
2017-03-20T18:41:14.532Z,98300
2017-03-20T18:41:30.343Z,98294
2017-03-20T18:41:46.155Z,98305
2017-03-20T18:42:02.199Z,98302
2017-03-20T18:42:18.009Z,98316
2017-03-20T18:42:33.821Z,98296
2017-03-20T18:42:49.500Z,98301
2017-03-20T18:43:05.313Z,98304
2017-03-20T18:43:21.186Z,98293
2017-03-20T18:43:37.067Z,98313
2017-03-20T18:43:53.178Z,98295
2017-03-20T18:44:09.312Z,98304
2017-03-20T18:44:25.467Z,98301
2017-03-20T18:44:41.229Z,98301
2017-03-20T18:44:57.336Z,98301
2017-03-20T18:45:13.695Z,98289
2017-03-20T18:45:29.852Z,98292
2017-03-20T18:45:45.831Z,98300
2017-03-20T18:46:01.754Z,98292
2017-03-20T18:46:17.809Z,98309
2017-03-20T18:46:33.621Z,98283
2017-03-20T18:46:49.528Z,98306
2017-03-20T18:47:05.290Z,98306
2017-03-20T18:47:21.475Z,98306
2017-03-20T18:47:37.850Z,98297
2017-03-20T18:47:53.754Z,98303
2017-03-20T18:48:09.662Z,98294
2017-03-20T18:48:25.538Z,98315
2017-03-20T18:48:42.144Z,98309
2017-03-20T18:48:58.166Z,98294
2017-03-20T18:49:14.190Z,98300
2017-03-20T18:49:30.133Z,98306
2017-03-20T18:49:46.273Z,98309
2017-03-20T18:50:02.162Z,98297
2017-03-20T18:50:17.977Z,98294
2017-03-20T18:50:33.963Z,98300
2017-03-20T18:50:50.087Z,98297
2017-03-20T18:51:06.111Z,98303
2017-03-20T18:51:22.351Z,98300
2017-03-20T18:51:38.163Z,98300
2017-03-20T18:51:53.978Z,98303
2017-03-20T18:52:09.785Z,98300
2017-03-20T18:52:25.595Z,98297
2017-03-20T18:52:41.407Z,98306
2017-03-20T18:52:57.453Z,98297
2017-03-20T18:53:13.270Z,98303
2017-03-20T18:53:29.083Z,98300
2017-03-20T18:53:45.104Z,98309
2017-03-20T18:54:01.399Z,98300
2017-03-20T18:54:17.582Z,98300
2017-03-20T18:54:33.448Z,98303
2017-03-20T18:54:49.258Z,98312
2017-03-20T18:55:05.071Z,98303
2017-03-20T18:55:20.883Z,98300
2017-03-20T18:55:36.695Z,98300
2017-03-20T18:55:52.508Z,98312
2017-03-20T18:56:08.554Z,98306
2017-03-20T18:56:24.369Z,98306
2017-03-20T18:56:40.183Z,98306
2017-03-20T18:56:55.997Z,98306
2017-03-20T18:57:12.040Z,98309
2017-03-20T18:57:27.855Z,98309
2017-03-20T18:57:43.672Z,98309
2017-03-20T18:57:59.489Z,98309
2017-03-20T18:58:15.172Z,98309
2017-03-20T18:58:30.986Z,98315
2017-03-20T18:58:46.892Z,98312
2017-03-20T18:59:02.701Z,98309
2017-03-20T18:59:18.382Z,98312
2017-03-20T18:59:34.192Z,98317
2017-03-20T18:59:50.006Z,98309
2017-03-20T19:00:06.054Z,98309
2017-03-20T19:00:21.731Z,98312
2017-03-20T19:00:37.545Z,98309
2017-03-20T19:00:53.357Z,98303
2017-03-20T19:01:09.169Z,98317
2017-03-20T19:01:24.982Z,98309
2017-03-20T19:01:40.793Z,98306
2017-03-20T19:01:56.842Z,98306
2017-03-20T19:02:12.702Z,98312
2017-03-20T19:02:28.513Z,98312
2017-03-20T19:02:44.323Z,98306
2017-03-20T19:03:00.136Z,98309
2017-03-20T19:03:15.951Z,98312
2017-03-20T19:03:31.764Z,98312
2017-03-20T19:03:47.576Z,98320
2017-03-20T19:04:03.391Z,98312
2017-03-20T19:04:19.203Z,98300
2017-03-20T19:04:35.017Z,98300
2017-03-20T19:04:51.064Z,98312
2017-03-20T19:05:06.879Z,98306
2017-03-20T19:05:22.694Z,98309
2017-03-20T19:05:38.504Z,98309
2017-03-20T19:05:54.321Z,98300
2017-03-20T19:06:10.131Z,98300
2017-03-20T19:06:25.944Z,98306
2017-03-20T19:06:42.079Z,98320
2017-03-20T19:06:57.897Z,98306
2017-03-20T19:07:13.709Z,98306
2017-03-20T19:07:29.754Z,98306
2017-03-20T19:07:45.566Z,98297
2017-03-20T19:08:01.614Z,98300
2017-03-20T19:08:17.294Z,98312
2017-03-20T19:08:33.106Z,98303
2017-03-20T19:08:48.926Z,98306
2017-03-20T19:09:04.733Z,98314
2017-03-20T19:09:20.778Z,98309
2017-03-20T19:09:36.591Z,98309
2017-03-20T19:09:52.409Z,98309
2017-03-20T19:10:08.223Z,98306
2017-03-20T19:10:24.037Z,98309
2017-03-20T19:10:39.851Z,98297
2017-03-20T19:10:55.669Z,98306
2017-03-20T19:11:11.483Z,98306
2017-03-20T19:11:27.309Z,98297
2017-03-20T19:11:43.114Z,98317
2017-03-20T19:11:58.927Z,98309
2017-03-20T19:12:14.742Z,98309
2017-03-20T19:12:30.419Z,98309
2017-03-20T19:12:46.233Z,98311
2017-03-20T19:13:02.510Z,98306
2017-03-20T19:13:18.322Z,98309
2017-03-20T19:13:34.135Z,98300
2017-03-20T19:13:50.340Z,98309
2017-03-20T19:14:06.386Z,98314
2017-03-20T19:14:22.200Z,98317
2017-03-20T19:14:37.877Z,98317
2017-03-20T19:14:53.692Z,98323
2017-03-20T19:15:09.749Z,98317
2017-03-20T19:15:25.571Z,98314
2017-03-20T19:15:41.378Z,98314
2017-03-20T19:15:57.191Z,98323
2017-03-20T19:16:13.000Z,98317
2017-03-20T19:16:28.812Z,98309
2017-03-20T19:16:44.622Z,98317
2017-03-20T19:17:00.436Z,98311
2017-03-20T19:17:16.253Z,98320
2017-03-20T19:17:32.068Z,98314
2017-03-20T19:17:48.110Z,98311
2017-03-20T19:18:03.923Z,98320
2017-03-20T19:18:19.738Z,98314
2017-03-20T19:18:35.549Z,98317
2017-03-20T19:18:51.452Z,98323
2017-03-20T19:19:07.262Z,98308
2017-03-20T19:19:23.302Z,98314
2017-03-20T19:19:39.395Z,98320
2017-03-20T19:19:55.213Z,98317
2017-03-20T19:20:11.025Z,98311
2017-03-20T19:20:27.073Z,98309
2017-03-20T19:20:43.112Z,98320
2017-03-20T19:20:59.152Z,98311
2017-03-20T19:21:14.966Z,98314
2017-03-20T19:21:30.875Z,98320
2017-03-20T19:21:46.687Z,98320
2017-03-20T19:22:02.500Z,98311
2017-03-20T19:22:18.312Z,98314
2017-03-20T19:22:34.355Z,98314
2017-03-20T19:22:50.164Z,98297
2017-03-20T19:23:06.206Z,98309
2017-03-20T19:23:22.018Z,98300
2017-03-20T19:23:37.830Z,98309
2017-03-20T19:23:53.887Z,98306
2017-03-20T19:24:09.701Z,98309
2017-03-20T19:24:25.512Z,98309
2017-03-20T19:24:41.350Z,98309
2017-03-20T19:24:57.213Z,98300
2017-03-20T19:25:13.049Z,98311
2017-03-20T19:25:28.870Z,98300
2017-03-20T19:25:44.687Z,98309
2017-03-20T19:26:00.500Z,98314
2017-03-20T19:26:16.179Z,98314
2017-03-20T19:26:32.225Z,98312
2017-03-20T19:26:48.268Z,98309
2017-03-20T19:27:04.082Z,98314
2017-03-20T19:27:19.899Z,98312
2017-03-20T19:27:35.711Z,98306
2017-03-20T19:27:51.521Z,98317
2017-03-20T19:28:07.334Z,98306
2017-03-20T19:28:23.151Z,98309
2017-03-20T19:28:38.969Z,98306
2017-03-20T19:28:54.788Z,98312
2017-03-20T19:29:10.622Z,98314
2017-03-20T19:29:26.419Z,98309
2017-03-20T19:29:42.462Z,98309
2017-03-20T19:29:58.327Z,98320
2017-03-20T19:30:14.153Z,98320
2017-03-20T19:30:29.959Z,98306
2017-03-20T19:30:45.775Z,98317
2017-03-20T19:31:01.586Z,98317
2017-03-20T19:31:17.633Z,98312
2017-03-20T19:31:33.449Z,98314
2017-03-20T19:31:49.263Z,98303
2017-03-20T19:32:05.074Z,98317
2017-03-20T19:32:20.987Z,98314
2017-03-20T19:32:36.795Z,98317
2017-03-20T19:32:52.607Z,98314
2017-03-20T19:33:08.421Z,98311
2017-03-20T19:33:24.235Z,98311
2017-03-20T19:33:40.047Z,98317
2017-03-20T19:33:56.151Z,98317
2017-03-20T19:34:11.969Z,98317
2017-03-20T19:34:27.778Z,98309
2017-03-20T19:34:43.589Z,98317
2017-03-20T19:34:59.409Z,98306
2017-03-20T19:35:15.218Z,98320
2017-03-20T19:35:31.259Z,98300
2017-03-20T19:35:47.339Z,98309
2017-03-20T19:36:03.150Z,98311
2017-03-20T19:36:19.066Z,98297
2017-03-20T19:36:34.870Z,98303
2017-03-20T19:36:50.688Z,98317
2017-03-20T19:37:06.513Z,98306
2017-03-20T19:37:22.368Z,98303
2017-03-20T19:37:38.186Z,98308
2017-03-20T19:37:54.001Z,98311
2017-03-20T19:38:09.815Z,98294
2017-03-20T19:38:25.633Z,98311
2017-03-20T19:38:41.677Z,98294
2017-03-20T19:38:57.638Z,98306
2017-03-20T19:39:13.484Z,98294
2017-03-20T19:39:29.495Z,98300
2017-03-20T19:39:45.307Z,98306
2017-03-20T19:40:01.497Z,98300
2017-03-20T19:40:17.527Z,98297
2017-03-20T19:40:33.781Z,98294
2017-03-20T19:40:49.622Z,98303
2017-03-20T19:41:05.667Z,98291
2017-03-20T19:41:21.485Z,98297
2017-03-20T19:41:37.553Z,98288
2017-03-20T19:41:53.365Z,98303
2017-03-20T19:42:09.174Z,98306
2017-03-20T19:42:24.992Z,98300
2017-03-20T19:42:41.034Z,98291
2017-03-20T19:42:57.076Z,98300
2017-03-20T19:43:12.991Z,98291
2017-03-20T19:43:29.032Z,98294
2017-03-20T19:43:45.079Z,98285
2017-03-20T19:44:01.123Z,98280
2017-03-20T19:44:17.169Z,98297
2017-03-20T19:44:32.982Z,98288
2017-03-20T19:44:49.026Z,98275
2017-03-20T19:45:04.888Z,98288
2017-03-20T19:45:20.954Z,98288
2017-03-20T19:45:37.000Z,98275
2017-03-20T19:45:52.817Z,98283
2017-03-20T19:46:08.864Z,98291
2017-03-20T19:46:24.909Z,98291
2017-03-20T19:46:40.957Z,98285
2017-03-20T19:46:56.768Z,98288
2017-03-20T19:47:12.583Z,98283
2017-03-20T19:47:28.271Z,98288
2017-03-20T19:47:44.080Z,98297
2017-03-20T19:48:00.359Z,98291
2017-03-20T19:48:16.174Z,98272
2017-03-20T19:48:31.995Z,98294
2017-03-20T19:48:47.812Z,98291
2017-03-20T19:49:03.494Z,98285
2017-03-20T19:49:19.537Z,98297
2017-03-20T19:49:35.456Z,98285
2017-03-20T19:49:51.268Z,98283
2017-03-20T19:50:07.310Z,98285
2017-03-20T19:50:23.125Z,98288
2017-03-20T19:50:38.936Z,98275
2017-03-20T19:50:54.982Z,98288
2017-03-20T19:51:11.027Z,98291
2017-03-20T19:51:27.074Z,98275
2017-03-20T19:51:43.347Z,98285
2017-03-20T19:51:59.390Z,98283
2017-03-20T19:52:15.667Z,98294
2017-03-20T19:52:31.939Z,98288
2017-03-20T19:52:47.994Z,98288
2017-03-20T19:53:04.266Z,98285
2017-03-20T19:53:20.080Z,98280
2017-03-20T19:53:35.906Z,98280
2017-03-20T19:53:51.725Z,98283
2017-03-20T19:54:07.872Z,98272
2017-03-20T19:54:23.933Z,98288
2017-03-20T19:54:39.745Z,98286
2017-03-20T19:54:55.597Z,98283
2017-03-20T19:55:11.644Z,98280
2017-03-20T19:55:27.686Z,98286
2017-03-20T19:55:43.500Z,98288
2017-03-20T19:55:59.312Z,98275
2017-03-20T19:56:15.124Z,98283
2017-03-20T19:56:30.944Z,98280
2017-03-20T19:56:46.760Z,98280
2017-03-20T19:57:02.575Z,98286
2017-03-20T19:57:18.614Z,98283
2017-03-20T19:57:34.424Z,98269
2017-03-20T19:57:50.237Z,98280
2017-03-20T19:58:06.050Z,98280
2017-03-20T19:58:21.864Z,98283
2017-03-20T19:58:37.679Z,98275
2017-03-20T19:58:53.726Z,98272
2017-03-20T19:59:09.632Z,98280
2017-03-20T19:59:25.309Z,98275
2017-03-20T19:59:41.354Z,98269
2017-03-20T19:59:57.168Z,98272
2017-03-20T20:00:12.985Z,98286
2017-03-20T20:00:29.028Z,98280
2017-03-20T20:00:44.840Z,98286
2017-03-20T20:01:00.657Z,98289
2017-03-20T20:01:16.472Z,98263
2017-03-20T20:01:32.280Z,98269
2017-03-20T20:01:48.328Z,98286
2017-03-20T20:02:04.138Z,98275
2017-03-20T20:02:20.187Z,98286
2017-03-20T20:02:36.230Z,98289
2017-03-20T20:02:52.274Z,98283
2017-03-20T20:03:07.954Z,98283
2017-03-20T20:03:23.640Z,98289
2017-03-20T20:03:39.454Z,98283
2017-03-20T20:03:55.136Z,98286
2017-03-20T20:04:11.197Z,98280
2017-03-20T20:04:27.011Z,98275
2017-03-20T20:04:42.824Z,98286
2017-03-20T20:04:58.868Z,98280
2017-03-20T20:05:14.682Z,98275
2017-03-20T20:05:30.725Z,98280
2017-03-20T20:05:46.538Z,98266
2017-03-20T20:06:02.354Z,98283
2017-03-20T20:06:18.168Z,98275
2017-03-20T20:06:33.985Z,98272
2017-03-20T20:06:49.800Z,98280
2017-03-20T20:07:05.852Z,98263
2017-03-20T20:07:21.890Z,98283
2017-03-20T20:07:37.707Z,98269
2017-03-20T20:07:53.521Z,98286
2017-03-20T20:08:09.211Z,98261
2017-03-20T20:08:25.024Z,98283
2017-03-20T20:08:40.839Z,98275
2017-03-20T20:08:56.655Z,98272
2017-03-20T20:09:12.695Z,98269
2017-03-20T20:09:28.515Z,98272
2017-03-20T20:09:44.554Z,98286
2017-03-20T20:10:00.367Z,98280
2017-03-20T20:10:16.182Z,98283
2017-03-20T20:10:31.997Z,98269
2017-03-20T20:10:47.814Z,98275
2017-03-20T20:11:03.619Z,98272
2017-03-20T20:11:19.433Z,98280
2017-03-20T20:11:35.248Z,98260
2017-03-20T20:11:51.286Z,98266
2017-03-20T20:12:07.102Z,98266
2017-03-20T20:12:23.151Z,98269
2017-03-20T20:12:38.964Z,98272
2017-03-20T20:12:54.644Z,98269
2017-03-20T20:13:10.457Z,98280
2017-03-20T20:13:26.503Z,98280
2017-03-20T20:13:42.315Z,98283
2017-03-20T20:13:58.360Z,98269
2017-03-20T20:14:14.463Z,98266
2017-03-20T20:14:30.507Z,98266
2017-03-20T20:14:46.317Z,98258
2017-03-20T20:15:01.997Z,98260
2017-03-20T20:15:18.041Z,98260
2017-03-20T20:15:33.854Z,98255
2017-03-20T20:15:49.898Z,98260
2017-03-20T20:16:05.940Z,98252
2017-03-20T20:16:21.750Z,98266
2017-03-20T20:16:37.568Z,98260
2017-03-20T20:16:53.381Z,98258
2017-03-20T20:17:09.195Z,98258
2017-03-20T20:17:25.009Z,98260
2017-03-20T20:17:40.819Z,98252
2017-03-20T20:17:56.632Z,98258
2017-03-20T20:18:12.442Z,98263
2017-03-20T20:18:28.254Z,98263
2017-03-20T20:18:44.067Z,98269
2017-03-20T20:19:00.115Z,98266
2017-03-20T20:19:16.295Z,98272
2017-03-20T20:19:32.336Z,98269
2017-03-20T20:19:48.609Z,98255
2017-03-20T20:20:04.288Z,98258
2017-03-20T20:20:20.101Z,98260
2017-03-20T20:20:36.142Z,98255
2017-03-20T20:20:51.954Z,98269
2017-03-20T20:21:07.764Z,98269
2017-03-20T20:21:23.806Z,98266
2017-03-20T20:21:39.618Z,98263
2017-03-20T20:21:55.662Z,98260
2017-03-20T20:22:11.475Z,98258
2017-03-20T20:22:27.519Z,98255
2017-03-20T20:22:43.329Z,98252
2017-03-20T20:22:59.144Z,98263
2017-03-20T20:23:14.954Z,98255
2017-03-20T20:23:30.767Z,98258
2017-03-20T20:23:46.579Z,98261
2017-03-20T20:24:02.391Z,98255
2017-03-20T20:24:18.452Z,98255
2017-03-20T20:24:34.263Z,98260
2017-03-20T20:24:50.306Z,98258
2017-03-20T20:25:06.440Z,98263
2017-03-20T20:25:22.253Z,98269
2017-03-20T20:25:38.063Z,98255
2017-03-20T20:25:53.875Z,98261
2017-03-20T20:26:09.687Z,98261
2017-03-20T20:26:25.731Z,98255
2017-03-20T20:26:41.542Z,98261
2017-03-20T20:26:57.222Z,98263
2017-03-20T20:27:13.034Z,98258
2017-03-20T20:27:28.850Z,98249
2017-03-20T20:27:44.664Z,98266
2017-03-20T20:28:00.477Z,98261
2017-03-20T20:28:16.164Z,98258
2017-03-20T20:28:31.976Z,98255
2017-03-20T20:28:47.653Z,98261
2017-03-20T20:29:03.465Z,98261
2017-03-20T20:29:19.282Z,98264
2017-03-20T20:29:35.324Z,98261
2017-03-20T20:29:51.138Z,98266
2017-03-20T20:30:07.184Z,98264
2017-03-20T20:30:22.997Z,98252
2017-03-20T20:30:38.807Z,98264
2017-03-20T20:30:54.621Z,98258
2017-03-20T20:31:10.433Z,98261
2017-03-20T20:31:26.249Z,98264
2017-03-20T20:31:42.060Z,98269
2017-03-20T20:31:57.873Z,98269
2017-03-20T20:32:13.684Z,98255
2017-03-20T20:32:29.503Z,98255
2017-03-20T20:32:45.317Z,98255
2017-03-20T20:33:01.131Z,98264
2017-03-20T20:33:17.182Z,98255
2017-03-20T20:33:32.994Z,98252
2017-03-20T20:33:48.813Z,98258
2017-03-20T20:34:04.624Z,98255
2017-03-20T20:34:20.732Z,98264
2017-03-20T20:34:36.542Z,98252
2017-03-20T20:34:52.354Z,98255
2017-03-20T20:35:08.165Z,98252
2017-03-20T20:35:23.981Z,98252
2017-03-20T20:35:39.794Z,98255
2017-03-20T20:35:55.607Z,98249
2017-03-20T20:36:11.420Z,98255
2017-03-20T20:36:27.231Z,98252
2017-03-20T20:36:43.040Z,98249
2017-03-20T20:36:58.852Z,98252
2017-03-20T20:37:14.664Z,98246
2017-03-20T20:37:30.479Z,98252
2017-03-20T20:37:46.292Z,98244
2017-03-20T20:38:02.106Z,98249
2017-03-20T20:38:17.920Z,98252
2017-03-20T20:38:33.734Z,98249
2017-03-20T20:38:49.547Z,98246
2017-03-20T20:39:05.364Z,98249
2017-03-20T20:39:21.271Z,98252
2017-03-20T20:39:37.083Z,98246
2017-03-20T20:39:53.127Z,98241
2017-03-20T20:40:08.939Z,98249
2017-03-20T20:40:24.752Z,98247
2017-03-20T20:40:40.564Z,98241
2017-03-20T20:40:56.380Z,98241
2017-03-20T20:41:12.191Z,98241
2017-03-20T20:41:28.004Z,98249
2017-03-20T20:41:43.814Z,98249
2017-03-20T20:41:59.855Z,98249
2017-03-20T20:42:15.667Z,98249
2017-03-20T20:42:31.479Z,98232
2017-03-20T20:42:47.294Z,98238
2017-03-20T20:43:03.113Z,98235
2017-03-20T20:43:19.153Z,98246
2017-03-20T20:43:34.970Z,98241
2017-03-20T20:43:50.777Z,98241
2017-03-20T20:44:06.594Z,98252
2017-03-20T20:44:22.826Z,98244
2017-03-20T20:44:38.639Z,98244
2017-03-20T20:44:54.458Z,98232
2017-03-20T20:45:10.273Z,98255
2017-03-20T20:45:26.088Z,98246
2017-03-20T20:45:41.903Z,98243
2017-03-20T20:45:57.728Z,98243
2017-03-20T20:46:13.755Z,98241
2017-03-20T20:46:29.566Z,98241
2017-03-20T20:46:45.378Z,98229
2017-03-20T20:47:01.191Z,98241
2017-03-20T20:47:17.005Z,98241
2017-03-20T20:47:32.817Z,98238
2017-03-20T20:47:48.633Z,98249
2017-03-20T20:48:04.445Z,98243
2017-03-20T20:48:20.263Z,98246
2017-03-20T20:48:36.076Z,98238
2017-03-20T20:48:51.892Z,98243
2017-03-20T20:49:07.715Z,98235
2017-03-20T20:49:23.519Z,98223
2017-03-20T20:49:39.567Z,98235
2017-03-20T20:49:55.617Z,98235
2017-03-20T20:50:11.429Z,98223
2017-03-20T20:50:27.241Z,98238
2017-03-20T20:50:43.308Z,98235
2017-03-20T20:50:59.101Z,98241
2017-03-20T20:51:14.781Z,98223
2017-03-20T20:51:30.826Z,98238
2017-03-20T20:51:46.886Z,98232
2017-03-20T20:52:02.699Z,98232
2017-03-20T20:52:18.378Z,98241
2017-03-20T20:52:34.187Z,98229
2017-03-20T20:52:49.999Z,98229
2017-03-20T20:53:06.042Z,98229
2017-03-20T20:53:21.856Z,98238
2017-03-20T20:53:37.898Z,98229
2017-03-20T20:53:53.939Z,98232
2017-03-20T20:54:09.760Z,98235
2017-03-20T20:54:26.188Z,98235
2017-03-20T20:54:42.004Z,98226
2017-03-20T20:54:58.066Z,98223
2017-03-20T20:55:13.876Z,98223
2017-03-20T20:55:29.689Z,98235
2017-03-20T20:55:45.502Z,98232
2017-03-20T20:56:01.316Z,98229
2017-03-20T20:56:17.127Z,98223
2017-03-20T20:56:32.941Z,98238
2017-03-20T20:56:48.754Z,98220
2017-03-20T20:57:04.569Z,98220
2017-03-20T20:57:20.382Z,98220
2017-03-20T20:57:36.198Z,98229
2017-03-20T20:57:52.008Z,98229
2017-03-20T20:58:08.058Z,98229
2017-03-20T20:58:23.896Z,98232
2017-03-20T20:58:39.939Z,98238
2017-03-20T20:58:55.797Z,98226
2017-03-20T20:59:11.609Z,98226
2017-03-20T20:59:27.518Z,98238
2017-03-20T20:59:43.591Z,98232
2017-03-20T20:59:59.653Z,98232
2017-03-20T21:00:15.471Z,98238
2017-03-20T21:00:31.282Z,98223
2017-03-20T21:00:47.092Z,98226
2017-03-20T21:01:02.914Z,98235
2017-03-20T21:01:18.957Z,98220
2017-03-20T21:01:34.769Z,98229
2017-03-20T21:01:50.580Z,98229
2017-03-20T21:02:06.394Z,98232
2017-03-20T21:02:22.209Z,98232
2017-03-20T21:02:38.249Z,98235
2017-03-20T21:02:54.062Z,98244
2017-03-20T21:03:10.107Z,98235
2017-03-20T21:03:25.918Z,98232
2017-03-20T21:03:41.755Z,98226
2017-03-20T21:03:57.567Z,98232
2017-03-20T21:04:13.389Z,98232
2017-03-20T21:04:29.442Z,98232
2017-03-20T21:04:45.251Z,98229
2017-03-20T21:05:01.065Z,98226
2017-03-20T21:05:16.875Z,98229
2017-03-20T21:05:32.687Z,98235
2017-03-20T21:05:48.730Z,98229
2017-03-20T21:06:04.541Z,98241
2017-03-20T21:06:20.354Z,98238
2017-03-20T21:06:36.401Z,98226
2017-03-20T21:06:52.215Z,98218
2017-03-20T21:07:08.255Z,98229
2017-03-20T21:07:24.068Z,98226
2017-03-20T21:07:39.881Z,98232
2017-03-20T21:07:55.697Z,98226
2017-03-20T21:08:11.512Z,98229
2017-03-20T21:08:27.323Z,98229
2017-03-20T21:08:43.138Z,98238
2017-03-20T21:08:58.957Z,98235
2017-03-20T21:09:14.771Z,98235
2017-03-20T21:09:30.585Z,98235
2017-03-20T21:09:46.397Z,98226
2017-03-20T21:10:02.210Z,98235
2017-03-20T21:10:18.255Z,98244
2017-03-20T21:10:34.066Z,98238
2017-03-20T21:10:49.880Z,98241
2017-03-20T21:11:05.693Z,98238
2017-03-20T21:11:21.375Z,98232
2017-03-20T21:11:37.190Z,98226
2017-03-20T21:11:53.005Z,98223
2017-03-20T21:12:09.046Z,98232
2017-03-20T21:12:24.858Z,98232
2017-03-20T21:12:41.130Z,98229
2017-03-20T21:12:56.944Z,98238
2017-03-20T21:13:12.756Z,98238
2017-03-20T21:13:28.569Z,98232
2017-03-20T21:13:44.380Z,98235
2017-03-20T21:14:00.191Z,98235
2017-03-20T21:14:16.007Z,98226
2017-03-20T21:14:32.219Z,98223
2017-03-20T21:14:48.038Z,98235
2017-03-20T21:15:03.851Z,98229
2017-03-20T21:15:19.669Z,98221
2017-03-20T21:15:35.477Z,98238
2017-03-20T21:15:51.298Z,98235
2017-03-20T21:16:07.108Z,98232
2017-03-20T21:16:22.792Z,98221
2017-03-20T21:16:38.603Z,98223
2017-03-20T21:16:54.416Z,98232
2017-03-20T21:17:10.235Z,98226
2017-03-20T21:17:26.047Z,98238
2017-03-20T21:17:41.862Z,98232
2017-03-20T21:17:57.908Z,98221
2017-03-20T21:18:13.723Z,98221
2017-03-20T21:18:29.535Z,98235
2017-03-20T21:18:45.350Z,98229
2017-03-20T21:19:01.162Z,98229
2017-03-20T21:19:17.209Z,98229
2017-03-20T21:19:33.220Z,98229
2017-03-20T21:19:49.032Z,98229
2017-03-20T21:20:04.849Z,98232
2017-03-20T21:20:20.660Z,98223
2017-03-20T21:20:36.473Z,98212
2017-03-20T21:20:52.285Z,98221
2017-03-20T21:21:08.100Z,98221
2017-03-20T21:21:23.913Z,98221
2017-03-20T21:21:39.962Z,98223
2017-03-20T21:21:56.005Z,98226
2017-03-20T21:22:12.049Z,98223
2017-03-20T21:22:27.861Z,98218
2017-03-20T21:22:43.679Z,98229
2017-03-20T21:22:59.722Z,98232
2017-03-20T21:23:15.763Z,98215
2017-03-20T21:23:31.575Z,98220
2017-03-20T21:23:47.615Z,98218
2017-03-20T21:24:03.428Z,98218
2017-03-20T21:24:19.242Z,98226
2017-03-20T21:24:35.482Z,98232
2017-03-20T21:24:51.524Z,98226
2017-03-20T21:25:07.339Z,98223
2017-03-20T21:25:23.153Z,98206
2017-03-20T21:25:38.967Z,98206
2017-03-20T21:25:54.780Z,98218
2017-03-20T21:26:10.591Z,98220
2017-03-20T21:26:26.270Z,98215
2017-03-20T21:26:42.083Z,98220
2017-03-20T21:26:57.892Z,98235
2017-03-20T21:27:13.704Z,98226
2017-03-20T21:27:29.750Z,98232
2017-03-20T21:27:45.809Z,98220
2017-03-20T21:28:01.618Z,98226
2017-03-20T21:28:17.433Z,98223
2017-03-20T21:28:33.245Z,98223
2017-03-20T21:28:49.060Z,98235
2017-03-20T21:29:04.874Z,98226
2017-03-20T21:29:20.700Z,98226
2017-03-20T21:29:36.512Z,98232
2017-03-20T21:29:52.190Z,98232
2017-03-20T21:30:08.000Z,98229
2017-03-20T21:30:23.814Z,98238
2017-03-20T21:30:39.629Z,98229
2017-03-20T21:30:55.441Z,98226
2017-03-20T21:31:11.251Z,98226
2017-03-20T21:31:27.060Z,98229
2017-03-20T21:31:42.872Z,98226
2017-03-20T21:31:58.684Z,98226
2017-03-20T21:32:14.722Z,98232
2017-03-20T21:32:30.535Z,98229
2017-03-20T21:32:46.356Z,98229
2017-03-20T21:33:02.163Z,98229
2017-03-20T21:33:18.209Z,98229
2017-03-20T21:33:34.022Z,98226
2017-03-20T21:33:49.835Z,98229
2017-03-20T21:34:05.876Z,98220
2017-03-20T21:34:21.916Z,98223
2017-03-20T21:34:38.216Z,98220
2017-03-20T21:34:54.026Z,98229
2017-03-20T21:35:10.070Z,98229
2017-03-20T21:35:26.109Z,98220
2017-03-20T21:35:41.922Z,98226
2017-03-20T21:35:57.737Z,98218
2017-03-20T21:36:13.550Z,98238
2017-03-20T21:36:29.383Z,98229
2017-03-20T21:36:45.195Z,98229
2017-03-20T21:37:01.009Z,98220
2017-03-20T21:37:16.825Z,98220
2017-03-20T21:37:32.638Z,98223
2017-03-20T21:37:48.448Z,98223
2017-03-20T21:38:04.491Z,98223
2017-03-20T21:38:20.303Z,98226
2017-03-20T21:38:36.115Z,98212
2017-03-20T21:38:51.929Z,98223
2017-03-20T21:39:07.742Z,98220
2017-03-20T21:39:23.557Z,98229
2017-03-20T21:39:39.459Z,98223
2017-03-20T21:39:55.139Z,98215
2017-03-20T21:40:10.949Z,98220
2017-03-20T21:40:26.760Z,98232
2017-03-20T21:40:42.582Z,98232
2017-03-20T21:40:58.395Z,98223
2017-03-20T21:41:14.210Z,98229
2017-03-20T21:41:30.250Z,98232
2017-03-20T21:41:46.063Z,98229
2017-03-20T21:42:01.877Z,98221
2017-03-20T21:42:17.921Z,98229
2017-03-20T21:42:33.738Z,98220
2017-03-20T21:42:49.546Z,98221
2017-03-20T21:43:05.359Z,98238
2017-03-20T21:43:21.055Z,98226
2017-03-20T21:43:36.866Z,98220
2017-03-20T21:43:52.678Z,98226
2017-03-20T21:44:08.521Z,98235
2017-03-20T21:44:24.793Z,98232
2017-03-20T21:44:40.604Z,98232
2017-03-20T21:44:56.451Z,98238
2017-03-20T21:45:12.721Z,98226
2017-03-20T21:45:28.535Z,98215
2017-03-20T21:45:44.219Z,98221
2017-03-20T21:46:00.041Z,98226
2017-03-20T21:46:15.853Z,98223
2017-03-20T21:46:31.661Z,98229
2017-03-20T21:46:47.475Z,98229
2017-03-20T21:47:03.293Z,98232
2017-03-20T21:47:19.102Z,98223
2017-03-20T21:47:34.916Z,98223
2017-03-20T21:47:50.727Z,98218
2017-03-20T21:48:06.636Z,98221
2017-03-20T21:48:22.452Z,98215
2017-03-20T21:48:38.495Z,98221
2017-03-20T21:48:54.309Z,98221
2017-03-20T21:49:10.355Z,98226
2017-03-20T21:49:26.168Z,98229
2017-03-20T21:49:42.122Z,98226
2017-03-20T21:49:57.938Z,98224
2017-03-20T21:50:13.985Z,98224
2017-03-20T21:50:30.027Z,98224
2017-03-20T21:50:45.712Z,98229
2017-03-20T21:51:01.758Z,98226
2017-03-20T21:51:18.036Z,98229
2017-03-20T21:51:33.849Z,98218
2017-03-20T21:51:49.663Z,98229
2017-03-20T21:52:05.474Z,98224
2017-03-20T21:52:21.287Z,98227
2017-03-20T21:52:37.099Z,98221
2017-03-20T21:52:52.919Z,98226
2017-03-20T21:53:08.737Z,98232
2017-03-20T21:53:24.418Z,98218
2017-03-20T21:53:40.230Z,98235
2017-03-20T21:53:56.040Z,98224
2017-03-20T21:54:11.854Z,98226
2017-03-20T21:54:27.668Z,98229
2017-03-20T21:54:43.573Z,98221
2017-03-20T21:54:59.387Z,98232
2017-03-20T21:55:15.199Z,98227
2017-03-20T21:55:31.012Z,98232
2017-03-20T21:55:46.847Z,98226
2017-03-20T21:56:02.672Z,98221
2017-03-20T21:56:18.486Z,98232
2017-03-20T21:56:34.527Z,98224
2017-03-20T21:56:50.336Z,98229
2017-03-20T21:57:06.150Z,98229
2017-03-20T21:57:22.201Z,98226
2017-03-20T21:57:38.014Z,98229
2017-03-20T21:57:53.825Z,98232
2017-03-20T21:58:09.868Z,98226
2017-03-20T21:58:25.681Z,98235
2017-03-20T21:58:41.500Z,98229
2017-03-20T21:58:57.315Z,98229
2017-03-20T21:59:13.815Z,98223
2017-03-20T21:59:29.626Z,98232
2017-03-20T21:59:45.731Z,98226
2017-03-20T22:00:01.778Z,98229
2017-03-20T22:00:17.592Z,98226
2017-03-20T22:00:33.636Z,98229
2017-03-20T22:00:49.909Z,98218
2017-03-20T22:01:05.725Z,98235
2017-03-20T22:01:21.533Z,98235
2017-03-20T22:01:37.581Z,98226
2017-03-20T22:01:53.393Z,98235
2017-03-20T22:02:09.304Z,98232